Time;durP1;ratioP1;P1;durP2;ratioP2;P2;SDS_P1;SDS_P2;PMS_P1;PMS_P2;Temp;Humidity;BMP_temperature;BMP_pressure;BME280_temperature;BME280_humidity;BME280_pressure;Samples;Min_cycle;Max_cycle;Signal;HPM_P1;HPM_P2
2023/03/30 00:01:20;;;;;;;3.00;2.22;;;;;;;;;;5073753;28;20028;-60
2023/03/30 00:03:47;;;;;;;3.85;2.00;;;;;;;;;;5073788;28;20033;-64
2023/03/30 00:06:21;;;;;;;3.67;2.20;;;;;;;;;;5073965;28;20036;-60
2023/03/30 00:08:52;;;;;;;4.88;2.38;;;;;;;;;;5073150;28;20036;-64
2023/03/30 00:11:21;;;;;;;3.35;2.10;;;;;;;;;;5073447;28;20039;-67
2023/03/30 00:13:49;;;;;;;4.75;2.45;;;;;;;;;;5073587;28;20028;-60
2023/03/30 00:16:15;;;;;;;2.58;1.83;;;;;;;;;;5073702;28;20028;-60
2023/03/30 00:18:41;;;;;;;2.83;2.05;;;;;;;;;;5073414;28;20476;-60
2023/03/30 00:21:08;;;;;;;4.05;2.45;;;;;;;;;;5073298;28;20035;-60
2023/03/30 00:23:34;;;;;;;2.92;1.92;;;;;;;;;;5073304;28;20032;-63
2023/03/30 00:26:00;;;;;;;2.67;2.00;;;;;;;;;;5073275;28;20025;-61
2023/03/30 00:28:29;;;;;;;5.45;2.42;;;;;;;;;;5073233;28;20028;-65
2023/03/30 00:30:55;;;;;;;4.57;2.50;;;;;;;;;;5073236;28;20461;-68
2023/03/30 00:33:21;;;;;;;3.67;2.10;;;;;;;;;;5073207;28;20035;-63
2023/03/30 00:35:57;;;;;;;3.72;2.28;;;;;;;;;;5073418;28;20094;-60
2023/03/30 00:38:24;;;;;;;2.92;2.20;;;;;;;;;;5073399;28;20063;-60
2023/03/30 00:40:56;;;;;;;2.65;1.80;;;;;;;;;;5072884;28;20035;-61
2023/03/30 00:43:22;;;;;;;4.30;2.10;;;;;;;;;;5073195;28;20115;-60
2023/03/30 00:45:48;;;;;;;4.15;2.28;;;;;;;;;;5072873;28;20108;-60
2023/03/30 00:48:33;;;;;;;3.60;2.15;;;;;;;;;;5072715;28;20140;-65
2023/03/30 00:51:06;;;;;;;5.35;2.40;;;;;;;;;;5073177;28;20105;-68
2023/03/30 00:53:38;;;;;;;3.35;2.15;;;;;;;;;;5072572;28;20029;-60
2023/03/30 00:56:06;;;;;;;4.88;2.25;;;;;;;;;;5072831;28;20032;-60
2023/03/30 00:58:33;;;;;;;2.75;1.90;;;;;;;;;;5072634;28;20547;-60
2023/03/30 01:01:01;;;;;;;5.47;2.25;;;;;;;;;;5072616;28;20471;-61
2023/03/30 01:03:37;;;;;;;3.90;2.20;;;;;;;;;;5072604;28;20024;-63
2023/03/30 01:06:06;;;;;;;3.05;2.13;;;;;;;;;;5072940;28;20441;-61
2023/03/30 01:08:33;;;;;;;3.13;2.22;;;;;;;;;;5072612;28;20082;-62
2023/03/30 01:11:00;;;;;;;5.72;2.78;;;;;;;;;;5072586;28;20410;-60
2023/03/30 01:13:32;;;;;;;2.92;2.13;;;;;;;;;;5072560;28;20035;-66
2023/03/30 01:16:17;;;;;;;3.38;2.03;;;;;;;;;;5072621;28;20423;-63
2023/03/30 01:19:11;;;;;;;2.95;1.95;;;;;;;;;;5072578;28;20020;-68
2023/03/30 01:22:14;;;;;;;2.95;2.08;;;;;;;;;;5060617;28;20052;-60
2023/03/30 01:25:13;;;;;;;2.40;1.80;;;;;;;;;;5072548;28;20017;-60
2023/03/30 01:28:01;;;;;;;5.53;2.40;;;;;;;;;;5072473;28;20035;-60
2023/03/30 01:30:45;;;;;;;5.07;1.92;;;;;;;;;;5072402;28;20036;-68
2023/03/30 01:33:28;;;;;;;2.67;2.17;;;;;;;;;;5072358;28;20040;-59
2023/03/30 01:36:12;;;;;;;3.53;2.05;;;;;;;;;;5072326;28;20050;-60
2023/03/30 01:38:40;;;;;;;3.08;2.10;;;;;;;;;;5072300;28;20158;-60
2023/03/30 01:41:13;;;;;;;4.25;1.80;;;;;;;;;;5072243;28;20032;-60
2023/03/30 01:43:57;;;;;;;6.55;2.13;;;;;;;;;;5072247;28;20025;-68
2023/03/30 01:46:48;;;;;;;2.33;1.80;;;;;;;;;;5072314;28;20099;-60
2023/03/30 01:49:48;;;;;;;3.92;2.20;;;;;;;;;;5071018;28;20102;-62
2023/03/30 01:52:18;;;;;;;2.42;1.75;;;;;;;;;;5072248;28;20032;-62
2023/03/30 01:54:51;;;;;;;3.28;1.98;;;;;;;;;;5072069;28;20024;-60
2023/03/30 01:57:29;;;;;;;3.17;2.10;;;;;;;;;;5072376;28;20028;-68
2023/03/30 02:00:00;;;;;;;3.60;1.88;;;;;;;;;;5072070;28;20407;-65
2023/03/30 02:02:29;;;;;;;2.58;2.10;;;;;;;;;;5072305;28;20636;-63
2023/03/30 02:04:59;;;;;;;3.50;2.20;;;;;;;;;;5070839;28;20070;-69
2023/03/30 02:07:28;;;;;;;3.28;2.28;;;;;;;;;;5072297;28;20037;-61
2023/03/30 02:09:58;;;;;;;3.40;2.20;;;;;;;;;;5072298;28;20497;-65
2023/03/30 02:12:28;;;;;;;3.08;1.98;;;;;;;;;;5072191;28;20037;-61
2023/03/30 02:15:00;;;;;;;4.07;2.15;;;;;;;;;;5071962;28;20028;-65
2023/03/30 02:17:29;;;;;;;4.18;2.40;;;;;;;;;;5071826;28;20032;-62
2023/03/30 02:19:56;;;;;;;3.67;1.98;;;;;;;;;;5072026;28;20071;-61
2023/03/30 02:22:25;;;;;;;3.60;2.33;;;;;;;;;;5071811;28;20045;-60
2023/03/30 02:24:54;;;;;;;3.45;2.20;;;;;;;;;;5071815;28;20028;-60
2023/03/30 02:27:22;;;;;;;3.37;2.00;;;;;;;;;;5071787;28;20021;-60
2023/03/30 02:29:47;;;;;;;6.07;2.17;;;;;;;;;;5071699;28;20260;-62
2023/03/30 02:32:26;;;;;;;3.75;1.85;;;;;;;;;;5073114;28;20112;-65
2023/03/30 02:35:17;;;;;;;2.47;2.00;;;;;;;;;;5075509;28;20020;-67
2023/03/30 02:38:07;;;;;;;3.65;2.00;;;;;;;;;;5075442;28;20025;-63
2023/03/30 02:40:40;;;;;;;3.80;2.20;;;;;;;;;;5075283;28;20033;-60
2023/03/30 02:43:55;;;;;;;2.63;2.00;;;;;;;;;;5075377;28;20112;-62
2023/03/30 02:46:36;;;;;;;2.25;2.00;;;;;;;;;;5072142;28;20037;-69
2023/03/30 02:49:22;;;;;;;2.80;2.10;;;;;;;;;;5075114;28;20381;-68
2023/03/30 02:52:00;;;;;;;3.50;2.20;;;;;;;;;;5075474;28;20458;-61
2023/03/30 02:54:53;;;;;;;3.30;1.80;;;;;;;;;;5075416;28;20437;-61
2023/03/30 02:57:42;;;;;;;3.22;2.25;;;;;;;;;;5075131;28;20024;-65
2023/03/30 03:00:17;;;;;;;3.05;1.95;;;;;;;;;;5074948;28;20043;-60
2023/03/30 03:02:50;;;;;;;2.28;2.08;;;;;;;;;;5074981;28;20056;-60
2023/03/30 03:05:16;;;;;;;2.72;2.08;;;;;;;;;;5074952;28;20420;-59
2023/03/30 03:07:43;;;;;;;7.13;2.50;;;;;;;;;;5074803;28;20036;-67
2023/03/30 03:10:09;;;;;;;5.43;2.50;;;;;;;;;;5074867;28;20491;-61
2023/03/30 03:12:35;;;;;;;2.97;2.25;;;;;;;;;;5074739;28;20021;-67
2023/03/30 03:15:02;;;;;;;3.03;2.10;;;;;;;;;;5074751;28;20028;-65
2023/03/30 03:17:33;;;;;;;3.08;1.90;;;;;;;;;;5074697;28;20025;-64
2023/03/30 03:20:00;;;;;;;3.20;2.13;;;;;;;;;;5074514;28;20032;-67
2023/03/30 03:22:26;;;;;;;3.50;2.00;;;;;;;;;;5074650;28;20028;-66
2023/03/30 03:24:51;;;;;;;4.10;2.30;;;;;;;;;;5074551;28;20074;-67
2023/03/30 03:27:17;;;;;;;3.42;2.53;;;;;;;;;;5074760;28;20028;-60
2023/03/30 03:29:43;;;;;;;2.53;1.85;;;;;;;;;;5074475;28;20488;-68
2023/03/30 03:32:08;;;;;;;2.95;2.15;;;;;;;;;;5074372;28;20060;-65
2023/03/30 03:34:34;;;;;;;2.20;2.00;;;;;;;;;;5074317;28;20025;-66
2023/03/30 03:37:00;;;;;;;3.33;2.13;;;;;;;;;;5074351;28;20025;-68
2023/03/30 03:39:25;;;;;;;4.45;2.00;;;;;;;;;;5074270;28;20048;-60
2023/03/30 03:41:51;;;;;;;3.20;2.30;;;;;;;;;;5074152;28;20032;-68
2023/03/30 03:44:17;;;;;;;2.72;2.10;;;;;;;;;;5073107;28;20055;-60
2023/03/30 03:46:45;;;;;;;3.13;2.17;;;;;;;;;;5074294;28;20027;-66
2023/03/30 03:49:11;;;;;;;3.35;2.15;;;;;;;;;;5073766;28;20032;-61
2023/03/30 03:51:37;;;;;;;2.50;2.03;;;;;;;;;;5073955;28;20089;-66
2023/03/30 03:54:02;;;;;;;3.22;1.90;;;;;;;;;;5073891;28;20035;-60
2023/03/30 03:56:28;;;;;;;2.60;2.20;;;;;;;;;;5074163;28;20456;-60
2023/03/30 03:58:53;;;;;;;2.88;2.22;;;;;;;;;;5073892;28;20471;-61
2023/03/30 04:01:19;;;;;;;3.28;2.30;;;;;;;;;;5073695;28;20675;-61
2023/03/30 04:03:45;;;;;;;3.05;2.15;;;;;;;;;;5073724;28;20375;-61
2023/03/30 04:06:10;;;;;;;2.20;1.90;;;;;;;;;;5073604;28;20067;-62
2023/03/30 04:08:36;;;;;;;3.13;2.05;;;;;;;;;;5073852;28;20025;-61
2023/03/30 04:11:06;;;;;;;3.80;2.00;;;;;;;;;;5073887;28;20029;-69
2023/03/30 04:13:33;;;;;;;2.03;1.77;;;;;;;;;;5073782;28;20024;-61
2023/03/30 04:15:59;;;;;;;3.00;2.10;;;;;;;;;;5073662;28;20035;-60
2023/03/30 04:18:30;;;;;;;2.08;1.85;;;;;;;;;;5073381;28;20033;-60
2023/03/30 04:20:58;;;;;;;2.47;2.20;;;;;;;;;;5073322;28;20043;-60
2023/03/30 04:23:29;;;;;;;2.65;1.90;;;;;;;;;;5073674;28;20523;-63
2023/03/30 04:26:00;;;;;;;2.35;1.95;;;;;;;;;;5071970;28;20103;-69
2023/03/30 04:28:28;;;;;;;4.07;1.98;;;;;;;;;;5073281;28;20379;-69
2023/03/30 04:30:58;;;;;;;2.22;2.00;;;;;;;;;;5073383;28;20032;-65
2023/03/30 04:33:24;;;;;;;2.22;1.90;;;;;;;;;;5073122;28;20032;-67
2023/03/30 04:35:50;;;;;;;2.65;1.92;;;;;;;;;;5073065;28;20031;-69
2023/03/30 04:38:21;;;;;;;2.95;2.28;;;;;;;;;;5072853;28;20020;-64
2023/03/30 04:40:51;;;;;;;4.20;2.45;;;;;;;;;;5072907;28;20025;-60
2023/03/30 04:43:21;;;;;;;3.28;2.10;;;;;;;;;;5072914;28;20033;-68
2023/03/30 04:45:55;;;;;;;3.67;2.10;;;;;;;;;;5073226;28;20025;-59
2023/03/30 04:48:22;;;;;;;2.45;2.25;;;;;;;;;;5072838;28;20504;-62
2023/03/30 04:50:49;;;;;;;2.90;2.15;;;;;;;;;;5073094;28;20056;-59
2023/03/30 04:53:16;;;;;;;2.88;2.13;;;;;;;;;;5073074;28;20033;-60
2023/03/30 04:55:46;;;;;;;3.05;2.08;;;;;;;;;;5072424;28;20025;-68
2023/03/30 04:58:11;;;;;;;3.30;2.25;;;;;;;;;;5073018;28;20020;-67
2023/03/30 05:00:37;;;;;;;2.58;2.00;;;;;;;;;;5072536;28;20403;-65
2023/03/30 05:03:04;;;;;;;3.00;2.10;;;;;;;;;;5072537;28;20020;-68
2023/03/30 05:05:29;;;;;;;2.80;1.85;;;;;;;;;;5072574;28;20175;-65
2023/03/30 05:07:56;;;;;;;2.80;2.22;;;;;;;;;;5072530;28;20495;-68
2023/03/30 05:10:21;;;;;;;4.93;2.55;;;;;;;;;;5072458;28;20035;-68
2023/03/30 05:12:47;;;;;;;2.40;2.00;;;;;;;;;;5072482;28;20021;-68
2023/03/30 05:15:14;;;;;;;4.22;1.90;;;;;;;;;;5072356;28;20027;-64
2023/03/30 05:17:39;;;;;;;2.50;1.90;;;;;;;;;;5072526;28;20021;-64
2023/03/30 05:20:08;;;;;;;4.60;2.22;;;;;;;;;;5072246;28;20024;-64
2023/03/30 05:22:35;;;;;;;3.38;2.05;;;;;;;;;;5072669;28;20036;-66
2023/03/30 05:25:01;;;;;;;3.42;2.50;;;;;;;;;;5072719;28;20025;-62
2023/03/30 05:27:27;;;;;;;3.50;2.28;;;;;;;;;;5072559;28;20036;-66
2023/03/30 05:29:53;;;;;;;6.53;2.30;;;;;;;;;;5072297;28;20422;-59
2023/03/30 05:32:18;;;;;;;3.00;2.17;;;;;;;;;;5072321;28;20027;-64
2023/03/30 05:34:45;;;;;;;2.30;2.00;;;;;;;;;;5072143;28;20040;-59
2023/03/30 05:37:11;;;;;;;3.15;2.30;;;;;;;;;;5072219;28;20028;-68
2023/03/30 05:39:36;;;;;;;2.20;2.00;;;;;;;;;;5070905;28;20012;-65
2023/03/30 05:42:02;;;;;;;2.80;2.47;;;;;;;;;;5072091;28;20025;-65
2023/03/30 05:44:28;;;;;;;2.40;2.13;;;;;;;;;;5070929;28;20028;-58
2023/03/30 05:46:54;;;;;;;4.25;2.35;;;;;;;;;;5071358;28;20348;-60
2023/03/30 05:49:19;;;;;;;3.60;2.42;;;;;;;;;;5071496;28;20044;-61
2023/03/30 05:51:45;;;;;;;2.83;2.42;;;;;;;;;;5071925;28;20514;-59
2023/03/30 05:54:12;;;;;;;2.13;1.90;;;;;;;;;;5071788;28;20031;-66
2023/03/30 05:56:38;;;;;;;3.10;2.38;;;;;;;;;;5072107;28;20175;-66
2023/03/30 05:59:04;;;;;;;2.33;2.13;;;;;;;;;;5071702;28;20421;-64
2023/03/30 06:01:30;;;;;;;3.03;2.33;;;;;;;;;;5072160;28;20123;-65
2023/03/30 06:03:56;;;;;;;3.58;2.47;;;;;;;;;;5071956;28;20020;-68
2023/03/30 06:06:22;;;;;;;3.53;2.33;;;;;;;;;;5072223;28;20111;-68
2023/03/30 06:08:48;;;;;;;3.08;2.38;;;;;;;;;;5075809;28;20416;-64
2023/03/30 06:11:14;;;;;;;3.58;2.53;;;;;;;;;;5076226;28;20082;-59
2023/03/30 06:13:40;;;;;;;3.22;2.40;;;;;;;;;;5076125;28;20423;-70
2023/03/30 06:16:06;;;;;;;4.93;2.50;;;;;;;;;;5075824;28;20074;-68
2023/03/30 06:18:32;;;;;;;2.92;2.35;;;;;;;;;;5075683;28;20082;-67
2023/03/30 06:21:01;;;;;;;4.57;2.75;;;;;;;;;;5075972;28;20028;-59
2023/03/30 06:23:27;;;;;;;3.33;2.40;;;;;;;;;;5075559;28;20535;-62
2023/03/30 06:25:54;;;;;;;2.70;2.50;;;;;;;;;;5074377;28;20372;-60
2023/03/30 06:28:21;;;;;;;3.35;2.55;;;;;;;;;;5075559;28;20076;-66
2023/03/30 06:30:48;;;;;;;3.75;2.30;;;;;;;;;;5075971;28;20158;-70
2023/03/30 06:33:17;;;;;;;3.55;2.40;;;;;;;;;;5075771;28;20064;-61
2023/03/30 06:35:45;;;;;;;3.40;2.40;;;;;;;;;;5075803;28;20025;-72
2023/03/30 06:38:11;;;;;;;3.38;2.60;;;;;;;;;;5075306;28;20021;-62
2023/03/30 06:40:36;;;;;;;4.40;2.55;;;;;;;;;;5075276;28;20036;-62
2023/03/30 06:43:02;;;;;;;4.50;2.65;;;;;;;;;;5075292;28;20025;-69
2023/03/30 06:45:28;;;;;;;2.63;2.33;;;;;;;;;;5075288;28;20115;-66
2023/03/30 06:47:53;;;;;;;4.28;2.50;;;;;;;;;;5075085;28;20041;-69
2023/03/30 06:50:19;;;;;;;3.88;2.60;;;;;;;;;;5075227;28;20028;-65
2023/03/30 06:52:46;;;;;;;3.83;2.50;;;;;;;;;;5075335;28;20028;-69
2023/03/30 06:55:11;;;;;;;3.92;2.20;;;;;;;;;;5075431;28;20021;-64
2023/03/30 06:57:37;;;;;;;4.10;2.90;;;;;;;;;;5074384;28;20031;-60
2023/03/30 07:00:14;;;;;;;4.13;2.60;;;;;;;;;;5070054;28;20403;-59
2023/03/30 07:02:43;;;;;;;3.22;2.40;;;;;;;;;;5069076;28;20013;-67
2023/03/30 07:05:11;;;;;;;3.50;2.50;;;;;;;;;;5068524;28;20048;-61
2023/03/30 07:07:37;;;;;;;3.90;2.42;;;;;;;;;;5070080;28;20031;-65
2023/03/30 07:10:09;;;;;;;3.88;2.90;;;;;;;;;;5068606;28;20035;-63
2023/03/30 07:12:39;;;;;;;3.65;2.63;;;;;;;;;;5068691;28;20464;-66
2023/03/30 07:15:09;;;;;;;4.82;3.10;;;;;;;;;;5070267;28;20043;-62
2023/03/30 07:17:35;;;;;;;3.17;2.70;;;;;;;;;;5070243;28;20115;-68
2023/03/30 07:20:01;;;;;;;5.45;2.47;;;;;;;;;;5068739;28;20426;-66
2023/03/30 07:22:27;;;;;;;3.38;2.42;;;;;;;;;;5069558;28;20039;-70
2023/03/30 07:24:53;;;;;;;3.13;2.40;;;;;;;;;;5067310;28;20025;-67
2023/03/30 07:27:18;;;;;;;3.85;2.80;;;;;;;;;;5051429;28;20056;-60
2023/03/30 07:29:45;;;;;;;3.55;2.75;;;;;;;;;;5054135;28;20052;-54
2023/03/30 07:32:11;;;;;;;3.30;2.60;;;;;;;;;;5050141;28;20037;-68
2023/03/30 07:34:37;;;;;;;3.83;3.03;;;;;;;;;;5051881;28;20412;-60
2023/03/30 07:37:02;;;;;;;4.05;2.67;;;;;;;;;;5054505;28;20103;-59
2023/03/30 07:39:28;;;;;;;2.75;2.30;;;;;;;;;;5054044;28;20056;-62
2023/03/30 07:41:54;;;;;;;3.22;2.50;;;;;;;;;;5054109;28;20036;-58
2023/03/30 07:44:20;;;;;;;3.30;2.70;;;;;;;;;;5054433;28;20036;-59
2023/03/30 07:46:45;;;;;;;6.00;3.13;;;;;;;;;;5053952;28;20390;-57
2023/03/30 07:49:11;;;;;;;3.55;2.67;;;;;;;;;;5053949;28;20094;-57
2023/03/30 07:51:40;;;;;;;4.38;2.53;;;;;;;;;;5054349;28;20099;-65
2023/03/30 07:54:09;;;;;;;3.25;2.60;;;;;;;;;;5053735;28;20036;-59
2023/03/30 07:56:38;;;;;;;3.22;2.63;;;;;;;;;;5053898;28;20033;-58
2023/03/30 07:59:04;;;;;;;6.47;2.80;;;;;;;;;;5053954;28;20036;-63
2023/03/30 08:01:31;;;;;;;5.25;2.60;;;;;;;;;;5052545;28;20477;-61
2023/03/30 08:03:57;;;;;;;3.20;2.40;;;;;;;;;;5054188;28;20029;-60
2023/03/30 08:06:27;;;;;;;3.55;2.75;;;;;;;;;;5053827;28;20151;-59
2023/03/30 08:08:53;;;;;;;2.87;2.53;;;;;;;;;;5053728;28;20036;-66
2023/03/30 08:11:19;;;;;;;4.15;2.60;;;;;;;;;;5053863;28;20060;-59
2023/03/30 08:13:44;;;;;;;3.42;2.50;;;;;;;;;;5051982;28;20563;-56
2023/03/30 08:16:11;;;;;;;3.65;2.40;;;;;;;;;;5053450;28;20508;-58
2023/03/30 08:18:37;;;;;;;3.92;2.55;;;;;;;;;;5052516;28;20109;-68
2023/03/30 08:21:03;;;;;;;3.03;2.33;;;;;;;;;;5051909;28;20438;-66
2023/03/30 08:23:29;;;;;;;3.83;2.50;;;;;;;;;;5051849;28;20051;-57
2023/03/30 08:25:58;;;;;;;4.03;2.20;;;;;;;;;;5051731;28;20021;-62
2023/03/30 08:28:25;;;;;;;3.30;2.50;;;;;;;;;;5051804;28;20037;-57
2023/03/30 08:30:52;;;;;;;4.72;2.53;;;;;;;;;;5051705;28;20431;-64
2023/03/30 08:33:17;;;;;;;4.15;2.60;;;;;;;;;;5051638;28;20033;-67
2023/03/30 08:35:45;;;;;;;3.60;2.58;;;;;;;;;;5051954;28;20388;-64
2023/03/30 08:38:14;;;;;;;3.38;2.28;;;;;;;;;;5051615;28;20104;-61
2023/03/30 08:40:41;;;;;;;2.88;2.20;;;;;;;;;;5051354;28;20035;-58
2023/03/30 08:43:28;;;;;;;3.63;2.78;;;;;;;;;;5051658;28;20035;-63
2023/03/30 08:45:57;;;;;;;2.33;2.13;;;;;;;;;;5054179;28;20112;-61
2023/03/30 08:48:27;;;;;;;3.40;2.38;;;;;;;;;;5071045;28;20036;-63
2023/03/30 08:50:58;;;;;;;3.53;2.40;;;;;;;;;;5070192;28;20044;-58
2023/03/30 08:53:27;;;;;;;4.82;2.53;;;;;;;;;;5071563;28;20036;-57
2023/03/30 08:55:57;;;;;;;3.15;2.35;;;;;;;;;;5071400;28;20035;-59
2023/03/30 08:58:54;;;;;;;3.03;2.28;;;;;;;;;;5069824;28;20063;-62
2023/03/30 09:01:52;;;;;;;3.17;2.38;;;;;;;;;;5071114;28;20039;-60
2023/03/30 09:05:00;;;;;;;3.53;2.30;;;;;;;;;;5058659;28;20044;-63
2023/03/30 09:07:33;;;;;;;2.63;2.17;;;;;;;;;;5070963;28;20051;-58
2023/03/30 09:09:59;;;;;;;2.58;2.10;;;;;;;;;;5050994;28;20051;-59
2023/03/30 09:12:44;;;;;;;3.35;2.40;;;;;;;;;;5050724;28;20025;-62
2023/03/30 09:15:34;;;;;;;3.42;2.35;;;;;;;;;;5049862;28;20033;-64
2023/03/30 09:18:16;;;;;;;3.65;2.63;;;;;;;;;;5050891;28;20060;-56
2023/03/30 09:20:43;;;;;;;2.42;2.20;;;;;;;;;;5049243;28;20033;-58
2023/03/30 09:23:15;;;;;;;3.97;2.33;;;;;;;;;;5050821;28;20098;-57
2023/03/30 09:25:40;;;;;;;3.45;2.40;;;;;;;;;;5050554;28;20027;-61
2023/03/30 09:28:12;;;;;;;4.30;2.28;;;;;;;;;;5050671;28;20025;-58
2023/03/30 09:30:41;;;;;;;2.63;2.42;;;;;;;;;;5050812;28;20054;-57
2023/03/30 09:33:16;;;;;;;3.75;2.47;;;;;;;;;;5050578;28;20491;-58
2023/03/30 09:35:47;;;;;;;2.67;2.17;;;;;;;;;;5060579;28;20412;-58
2023/03/30 09:38:13;;;;;;;2.83;2.30;;;;;;;;;;5050038;28;20029;-61
2023/03/30 09:41:09;;;;;;;2.42;2.10;;;;;;;;;;5049823;28;20032;-62
2023/03/30 09:43:44;;;;;;;3.65;2.20;;;;;;;;;;5054461;28;20027;-58
2023/03/30 09:46:12;;;;;;;3.15;2.15;;;;;;;;;;5054385;28;20025;-63
2023/03/30 09:48:43;;;;;;;2.85;2.30;;;;;;;;;;5053019;28;20554;-61
2023/03/30 09:51:27;;;;;;;2.45;2.25;;;;;;;;;;5054618;28;20035;-58
2023/03/30 09:54:03;;;;;;;3.03;2.25;;;;;;;;;;5054573;28;20021;-58
2023/03/30 09:56:43;;;;;;;3.45;2.42;;;;;;;;;;5054689;28;20381;-58
2023/03/30 09:59:34;;;;;;;2.65;2.03;;;;;;;;;;5054711;28;20033;-60
2023/03/30 10:02:15;;;;;;;;;;;;;;;;;;5054706;28;20029;-58
2023/03/30 10:04:53;;;;;;;2.55;2.00;;;;;;;;;;5054786;28;19919;-57
2023/03/30 10:07:23;;;;;;;2.50;2.30;;;;;;;;;;5054603;28;20060;-66
2023/03/30 10:09:50;;;;;;;2.30;2.08;;;;;;;;;;5054167;28;20103;-57
2023/03/30 10:12:16;;;;;;;4.15;2.50;;;;;;;;;;5054271;28;20083;-57
2023/03/30 10:14:42;;;;;;;2.97;2.38;;;;;;;;;;5054396;28;20036;-64
2023/03/30 10:17:19;;;;;;;3.92;2.55;;;;;;;;;;5054223;28;20427;-58
2023/03/30 10:19:45;;;;;;;2.33;2.10;;;;;;;;;;5054373;28;20029;-61
2023/03/30 10:22:21;;;;;;;2.40;2.20;;;;;;;;;;5054045;28;20043;-56
2023/03/30 10:24:53;;;;;;;2.97;2.28;;;;;;;;;;5054237;28;20032;-58
2023/03/30 10:27:27;;;;;;;2.42;2.20;;;;;;;;;;5053901;28;20021;-57
2023/03/30 10:29:52;;;;;;;3.65;2.28;;;;;;;;;;5053870;28;20028;-59
2023/03/30 10:32:22;;;;;;;4.40;2.33;;;;;;;;;;5053795;28;20135;-58
2023/03/30 10:35:04;;;;;;;3.00;2.15;;;;;;;;;;5053777;28;20491;-58
2023/03/30 10:37:45;;;;;;;3.53;2.50;;;;;;;;;;5053634;28;20311;-61
2023/03/30 10:40:32;;;;;;;2.55;2.17;;;;;;;;;;5053893;28;20048;-57
2023/03/30 10:42:59;;;;;;;3.00;2.00;;;;;;;;;;5063861;28;20028;-59
2023/03/30 10:45:47;;;;;;;2.22;2.03;;;;;;;;;;5056971;28;20384;-59
2023/03/30 10:48:39;;;;;;;3.15;2.50;;;;;;;;;;5071070;28;20044;-59
2023/03/30 10:51:26;;;;;;;2.40;2.20;;;;;;;;;;5073403;28;20047;-58
2023/03/30 10:54:11;;;;;;;5.32;2.03;;;;;;;;;;5071918;28;20033;-63
2023/03/30 10:56:50;;;;;;;3.72;2.25;;;;;;;;;;5073548;28;20040;-59
2023/03/30 10:59:40;;;;;;;3.20;2.15;;;;;;;;;;5071867;28;20028;-58
2023/03/30 11:02:27;;;;;;;2.63;2.30;;;;;;;;;;5073033;28;20029;-59
2023/03/30 11:04:56;;;;;;;2.58;2.20;;;;;;;;;;5072288;28;20033;-58
2023/03/30 11:07:38;;;;;;;2.85;2.53;;;;;;;;;;5073358;28;20031;-60
2023/03/30 11:10:13;;;;;;;2.40;2.15;;;;;;;;;;5072774;28;20048;-60
2023/03/30 11:12:45;;;;;;;3.90;2.30;;;;;;;;;;5072997;28;20028;-62
2023/03/30 11:15:30;;;;;;;3.42;2.50;;;;;;;;;;5073723;28;20111;-60
2023/03/30 11:18:07;;;;;;;2.83;2.20;;;;;;;;;;5072991;28;20035;-58
2023/03/30 11:20:40;;;;;;;2.28;1.90;;;;;;;;;;5072872;28;20052;-59
2023/03/30 11:23:16;;;;;;;4.60;2.17;;;;;;;;;;5073073;28;20256;-58
2023/03/30 11:26:01;;;;;;;2.88;2.20;;;;;;;;;;5073181;28;20400;-59
2023/03/30 11:29:18;;;;;;;2.60;2.10;;;;;;;;;;5072898;28;20029;-57
2023/03/30 11:31:52;;;;;;;2.72;2.05;;;;;;;;;;5038638;28;20396;-57
2023/03/30 11:34:47;;;;;;;4.78;1.95;;;;;;;;;;5072945;28;20372;-56
2023/03/30 11:37:29;;;;;;;2.40;2.20;;;;;;;;;;5072563;28;20055;-65
2023/03/30 11:40:18;;;;;;;2.45;2.20;;;;;;;;;;5072636;28;20117;-65
2023/03/30 11:42:46;;;;;;;2.83;2.40;;;;;;;;;;5071127;28;20051;-59
2023/03/30 11:45:33;;;;;;;2.63;2.22;;;;;;;;;;5072899;28;20044;-58
2023/03/30 11:48:06;;;;;;;2.70;2.30;;;;;;;;;;5072008;28;20076;-59
2023/03/30 11:51:02;;;;;;;4.63;2.10;;;;;;;;;;5072628;28;20392;-59
2023/03/30 11:53:44;;;;;;;2.40;2.15;;;;;;;;;;5072357;28;20637;-59
2023/03/30 11:56:18;;;;;;;3.10;2.38;;;;;;;;;;5072259;28;20496;-59
2023/03/30 11:59:00;;;;;;;3.88;2.15;;;;;;;;;;5071061;28;20309;-60
2023/03/30 12:01:44;;;;;;;9.52;2.60;;;;;;;;;;5072090;28;20028;-59
2023/03/30 12:04:13;;;;;;;9.55;3.17;;;;;;;;;;5071656;28;20115;-59
2023/03/30 12:06:59;;;;;;;13.93;3.70;;;;;;;;;;5066539;28;20032;-59
2023/03/30 12:09:52;;;;;;;11.93;3.20;;;;;;;;;;5069663;28;20383;-60
2023/03/30 12:12:26;;;;;;;8.65;3.40;;;;;;;;;;5090179;28;20149;-59
2023/03/30 12:15:11;;;;;;;7.20;3.00;;;;;;;;;;5070296;28;20029;-59
2023/03/30 12:17:44;;;;;;;9.38;3.28;;;;;;;;;;5070929;28;20032;-59
2023/03/30 12:20:10;;;;;;;4.93;3.00;;;;;;;;;;5069552;28;20103;-60
2023/03/30 12:23:01;;;;;;;6.88;3.50;;;;;;;;;;5069059;28;20108;-60
2023/03/30 12:25:34;;;;;;;7.40;2.58;;;;;;;;;;5082870;28;20024;-67
2023/03/30 12:28:16;;;;;;;4.80;2.90;;;;;;;;;;5071666;28;20063;-60
2023/03/30 12:30:58;;;;;;;6.68;2.40;;;;;;;;;;5070632;28;20542;-63
2023/03/30 12:33:33;;;;;;;8.43;2.33;;;;;;;;;;5071685;28;20644;-59
2023/03/30 12:36:21;;;;;;;7.82;2.72;;;;;;;;;;5071518;28;20031;-67
2023/03/30 12:38:48;;;;;;;3.92;2.20;;;;;;;;;;5071445;28;20032;-67
2023/03/30 12:41:21;;;;;;;6.97;2.60;;;;;;;;;;5071428;28;20488;-59
2023/03/30 12:43:52;;;;;;;3.83;2.30;;;;;;;;;;5071546;28;20032;-61
2023/03/30 12:46:26;;;;;;;6.10;2.10;;;;;;;;;;5071625;28;20070;-63
2023/03/30 12:49:23;;;;;;;3.28;2.30;;;;;;;;;;5071437;28;20498;-59
2023/03/30 12:52:09;;;;;;;7.85;2.70;;;;;;;;;;5068807;28;20032;-65
2023/03/30 12:54:48;;;;;;;4.47;2.67;;;;;;;;;;5068649;28;20139;-65
2023/03/30 12:57:55;;;;;;;3.10;2.40;;;;;;;;;;5071458;28;20249;-63
2023/03/30 13:00:40;;;;;;;5.85;2.92;;;;;;;;;;5056880;28;20400;-63
2023/03/30 13:03:23;;;;;;;3.85;2.35;;;;;;;;;;5070987;28;20025;-67
2023/03/30 13:05:51;;;;;;;3.70;2.50;;;;;;;;;;5071062;28;20082;-65
2023/03/30 13:08:40;;;;;;;4.93;3.05;;;;;;;;;;5071005;28;20886;-62
2023/03/30 13:11:10;;;;;;;5.35;2.45;;;;;;;;;;5071404;28;20432;-61
2023/03/30 13:13:50;;;;;;;4.03;2.47;;;;;;;;;;5070996;28;20503;-65
2023/03/30 13:16:48;;;;;;;2.92;2.30;;;;;;;;;;5071072;28;20464;-60
2023/03/30 13:19:36;;;;;;;5.00;2.30;;;;;;;;;;5070912;28;20020;-63
2023/03/30 13:22:10;;;;;;;5.03;2.70;;;;;;;;;;5063841;28;20044;-60
2023/03/30 13:24:45;;;;;;;3.90;2.30;;;;;;;;;;5071130;28;20468;-58
2023/03/30 13:27:13;;;;;;;4.03;2.30;;;;;;;;;;5070656;28;20036;-61
2023/03/30 13:29:53;;;;;;;2.90;2.20;;;;;;;;;;5071078;28;20482;-67
2023/03/30 13:32:55;;;;;;;6.47;2.73;;;;;;;;;;5068822;28;20107;-71
2023/03/30 13:35:28;;;;;;;4.95;2.50;;;;;;;;;;5068622;28;20055;-58
2023/03/30 13:38:15;;;;;;;3.05;2.30;;;;;;;;;;5070718;28;20161;-59
2023/03/30 13:40:59;;;;;;;3.25;2.30;;;;;;;;;;5070653;28;20032;-59
2023/03/30 13:43:38;;;;;;;3.95;2.60;;;;;;;;;;5070625;28;20036;-59
2023/03/30 13:46:11;;;;;;;5.05;2.42;;;;;;;;;;5070712;28;20036;-61
2023/03/30 13:48:59;;;;;;;3.15;2.22;;;;;;;;;;5069635;28;20052;-61
2023/03/30 13:51:28;;;;;;;3.22;2.35;;;;;;;;;;5067756;28;20037;-59
2023/03/30 13:54:02;;;;;;;3.78;2.08;;;;;;;;;;5069521;28;20090;-59
2023/03/30 13:56:36;;;;;;;9.75;2.63;;;;;;;;;;5070504;28;20036;-59
2023/03/30 13:59:16;;;;;;;7.30;2.53;;;;;;;;;;5070726;28;20555;-60
2023/03/30 14:01:48;;;;;;;6.15;2.72;;;;;;;;;;5070523;28;20028;-62
2023/03/30 14:04:14;;;;;;;10.13;2.88;;;;;;;;;;5070639;28;20183;-64
2023/03/30 14:06:48;;;;;;;12.35;2.90;;;;;;;;;;5068346;28;20034;-61
2023/03/30 14:09:29;;;;;;;7.82;2.80;;;;;;;;;;5068112;28;20017;-63
2023/03/30 14:11:57;;;;;;;5.22;2.67;;;;;;;;;;5069096;28;20021;-62
2023/03/30 14:14:45;;;;;;;11.68;2.92;;;;;;;;;;5070494;28;20032;-64
2023/03/30 14:17:18;;;;;;;5.65;2.53;;;;;;;;;;5070340;28;20078;-60
2023/03/30 14:20:08;;;;;;;12.77;2.88;;;;;;;;;;5070445;28;20062;-66
2023/03/30 14:22:42;;;;;;;7.72;3.45;;;;;;;;;;5070321;28;20031;-62
2023/03/30 14:25:30;;;;;;;8.02;2.65;;;;;;;;;;5069005;28;20090;-67
2023/03/30 14:28:00;;;;;;;6.32;2.42;;;;;;;;;;5071102;28;20029;-63
2023/03/30 14:30:30;;;;;;;6.35;2.72;;;;;;;;;;5074123;28;20028;-61
2023/03/30 14:33:12;;;;;;;3.63;2.60;;;;;;;;;;5074192;28;20162;-63
2023/03/30 14:36:04;;;;;;;4.25;2.55;;;;;;;;;;5074019;28;20020;-62
2023/03/30 14:38:51;;;;;;;4.15;2.20;;;;;;;;;;5071957;28;20033;-67
2023/03/30 14:41:26;;;;;;;4.43;2.45;;;;;;;;;;5073812;28;20089;-60
2023/03/30 14:44:05;;;;;;;4.45;2.03;;;;;;;;;;5074073;28;20029;-58
2023/03/30 14:46:45;;;;;;;5.07;2.28;;;;;;;;;;5074049;28;20032;-59
2023/03/30 14:49:18;;;;;;;6.20;2.20;;;;;;;;;;5073621;28;20067;-61
2023/03/30 14:51:53;;;;;;;2.75;2.17;;;;;;;;;;5073724;28;20032;-59
2023/03/30 14:54:22;;;;;;;4.80;2.38;;;;;;;;;;5073514;28;20103;-59
2023/03/30 14:56:56;;;;;;;11.10;2.20;;;;;;;;;;5073575;28;20586;-58
2023/03/30 14:59:24;;;;;;;6.50;2.47;;;;;;;;;;5073500;28;20086;-59
2023/03/30 15:01:51;;;;;;;4.40;2.17;;;;;;;;;;5073561;28;20054;-59
2023/03/30 15:04:19;;;;;;;3.10;2.13;;;;;;;;;;5071603;28;20039;-60
2023/03/30 15:06:48;;;;;;;10.88;2.15;;;;;;;;;;5073528;28;20372;-59
2023/03/30 15:09:20;;;;;;;5.88;2.47;;;;;;;;;;5072057;28;20110;-59
2023/03/30 15:11:51;;;;;;;7.30;2.20;;;;;;;;;;5085200;28;20036;-61
2023/03/30 15:14:21;;;;;;;7.97;2.15;;;;;;;;;;5093470;28;20035;-64
2023/03/30 15:16:52;;;;;;;5.93;2.08;;;;;;;;;;5093369;28;20032;-64
2023/03/30 15:19:28;;;;;;;5.45;2.22;;;;;;;;;;5093463;28;20495;-62